Pompton Lakes, NJ (07442)

8:20 AM EDT on May 28, 2015 (GMT -0400)
APRSWXNET | | Change Station
CLOSE
Current Station
Personal Weather Station
Location: Pompton Lakes, NJ
Elevation: 275 ft
Nearby Weather Stations

Elev 275 ft 41.01 °N, 74.27 °W | Updated 50 minutes ago

Overcast
Overcast
69 °F
Feels Like 69 °F
N
2
Wind Variable Wind from SSW
Gusts 4.0 mph

Today
High -- | Low -- °F
--% Chance of Precip.
Yesterday
High -- | Low -- °F
Precip. -- in
5:29 AM 8:19 PM
Waxing Gibbous, 75% visible
Pressure 30.17 in
Visibility 5.0 miles
Clouds Overcast 800 ft
Dew Point 68 °F
Humidity 98%
Rainfall in
Snow Depth Not available.
UV 1 out of 12
Pollen 8.50 out of 12
Air Quality Not available.
Flu Activity Sporadic
METAR KCDW 281153Z COR 00000KT 5SM BR OVC008 22/19 A3015 RMK AO2 CIG 007V013 SLP215 70020 T02170194 10217 20200 50007

More Conditions Fewer Conditions

Pressure 30.17 in
Visibility 5.0 miles
Clouds Overcast 800 ft
Dew Point 68 °F
Humidity 98%
Rainfall in
Snow Depth Not available.
UV 1 out of 12
Pollen 8.50 out of 12
Air Quality Not available.
Flu Activity Sporadic
METAR KCDW 281153Z COR 00000KT 5SM BR OVC008 22/19 A3015 RMK AO2 CIG 007V013 SLP215 70020 T02170194 10217 20200 50007

More Conditions Fewer Conditions

10-Day Weather Forecast

Almanac

Astronomy

May. 28, 2015 Rise Set
Actual Time
Civil Twilight
Nautical Twilight
Astronomical Twilight
Moon
Length of Visible Light
Length of Day
Tomorrow will be .
, % of the Moon is Illuminated

Today's Extremes

State Highs State Lows

Community

WunderPhotos

Upload Photos

1,824,960 photos uploaded!

WunderBlogs® & News

Nearby

Air Quality

  Air Quality AQ Index Pollutant
Not available.

Snow Depth

Station Depth Elevation

Earthquake Activity

City Distance Mag. Time & Date
Minimum magnitude displayed is 2.5.

Coastal Water Temperatures

Place Temperature

Stations

Nearby Weather Stations

Station Location Temp. Windchill Dew Point Humidity Wind Precip. Elev Updated Type